sensor_id;sensor_type;location;lat;lon;timestamp;temperature;humidity
29939;DHT22;16799;50.844;5.304;2024-02-26T00:01:33;7.30;99.90
29939;DHT22;16799;50.844;5.304;2024-02-26T00:04:02;7.30;99.90
29939;DHT22;16799;50.844;5.304;2024-02-26T00:06:29;7.30;99.90
29939;DHT22;16799;50.844;5.304;2024-02-26T00:08:54;7.10;99.90
29939;DHT22;16799;50.844;5.304;2024-02-26T00:11:20;7.10;99.90
29939;DHT22;16799;50.844;5.304;2024-02-26T00:13:45;7.20;99.90
29939;DHT22;16799;50.844;5.304;2024-02-26T00:16:11;7.10;99.90
29939;DHT22;16799;50.844;5.304;2024-02-26T00:18:37;7.10;99.90
29939;DHT22;16799;50.844;5.304;2024-02-26T00:21:03;7.10;99.90
29939;DHT22;16799;50.844;5.304;2024-02-26T00:23:28;7.00;99.90
29939;DHT22;16799;50.844;5.304;2024-02-26T00:25:54;7.00;99.90
29939;DHT22;16799;50.844;5.304;2024-02-26T00:28:21;6.90;99.90
29939;DHT22;16799;50.844;5.304;2024-02-26T00:30:47;7.00;99.90
29939;DHT22;16799;50.844;5.304;2024-02-26T00:33:14;6.90;99.90
29939;DHT22;16799;50.844;5.304;2024-02-26T00:35:39;6.80;99.90
29939;DHT22;16799;50.844;5.304;2024-02-26T00:38:05;6.80;99.90
29939;DHT22;16799;50.844;5.304;2024-02-26T00:40:31;6.70;99.90
29939;DHT22;16799;50.844;5.304;2024-02-26T00:42:57;6.70;99.90
29939;DHT22;16799;50.844;5.304;2024-02-26T00:45:22;6.70;99.90
29939;DHT22;16799;50.844;5.304;2024-02-26T00:47:48;6.70;99.90
29939;DHT22;16799;50.844;5.304;2024-02-26T00:50:14;6.70;99.90
29939;DHT22;16799;50.844;5.304;2024-02-26T00:52:40;6.70;99.90
29939;DHT22;16799;50.844;5.304;2024-02-26T00:55:07;6.60;99.90
29939;DHT22;16799;50.844;5.304;2024-02-26T00:57:33;6.50;99.90
29939;DHT22;16799;50.844;5.304;2024-02-26T00:59:58;6.50;99.90
29939;DHT22;16799;50.844;5.304;2024-02-26T01:02:24;6.50;99.90
29939;DHT22;16799;50.844;5.304;2024-02-26T01:04:50;6.40;99.90
29939;DHT22;16799;50.844;5.304;2024-02-26T01:07:16;6.40;99.90
29939;DHT22;16799;50.844;5.304;2024-02-26T01:09:42;6.50;99.90
29939;DHT22;16799;50.844;5.304;2024-02-26T01:12:08;6.40;99.90
29939;DHT22;16799;50.844;5.304;2024-02-26T01:14:34;6.40;99.90
29939;DHT22;16799;50.844;5.304;2024-02-26T01:16:59;6.50;99.90
29939;DHT22;16799;50.844;5.304;2024-02-26T01:19:25;6.50;99.90
29939;DHT22;16799;50.844;5.304;2024-02-26T01:21:51;6.40;99.90
29939;DHT22;16799;50.844;5.304;2024-02-26T01:24:16;6.50;99.90
29939;DHT22;16799;50.844;5.304;2024-02-26T01:26:42;6.50;99.90
29939;DHT22;16799;50.844;5.304;2024-02-26T01:29:08;6.50;99.90
29939;DHT22;16799;50.844;5.304;2024-02-26T01:31:34;6.50;99.90
29939;DHT22;16799;50.844;5.304;2024-02-26T01:34:00;6.50;99.90
29939;DHT22;16799;50.844;5.304;2024-02-26T01:36:26;6.50;99.90
29939;DHT22;16799;50.844;5.304;2024-02-26T01:38:51;6.50;99.90
29939;DHT22;16799;50.844;5.304;2024-02-26T01:41:17;6.50;99.90
29939;DHT22;16799;50.844;5.304;2024-02-26T01:43:42;6.40;99.90
29939;DHT22;16799;50.844;5.304;2024-02-26T01:46:14;6.40;99.90
29939;DHT22;16799;50.844;5.304;2024-02-26T01:48:44;6.40;99.90
29939;DHT22;16799;50.844;5.304;2024-02-26T01:51:12;6.40;99.90
29939;DHT22;16799;50.844;5.304;2024-02-26T01:53:39;6.40;99.90
29939;DHT22;16799;50.844;5.304;2024-02-26T01:56:05;6.40;99.90
29939;DHT22;16799;50.844;5.304;2024-02-26T01:58:32;6.40;99.90
29939;DHT22;16799;50.844;5.304;2024-02-26T02:00:59;6.40;99.90
29939;DHT22;16799;50.844;5.304;2024-02-26T02:03:26;6.40;99.90
29939;DHT22;16799;50.844;5.304;2024-02-26T02:05:52;6.30;99.90
29939;DHT22;16799;50.844;5.304;2024-02-26T02:08:18;6.30;99.90
29939;DHT22;16799;50.844;5.304;2024-02-26T02:10:44;6.30;99.90
29939;DHT22;16799;50.844;5.304;2024-02-26T02:13:13;6.30;99.90
29939;DHT22;16799;50.844;5.304;2024-02-26T02:15:39;6.40;99.90
29939;DHT22;16799;50.844;5.304;2024-02-26T02:18:05;6.40;99.90
29939;DHT22;16799;50.844;5.304;2024-02-26T02:20:35;6.40;99.90
29939;DHT22;16799;50.844;5.304;2024-02-26T02:23:01;6.30;99.90
29939;DHT22;16799;50.844;5.304;2024-02-26T02:25:28;6.40;99.90
29939;DHT22;16799;50.844;5.304;2024-02-26T02:27:54;6.40;99.90
29939;DHT22;16799;50.844;5.304;2024-02-26T02:30:21;6.40;99.90
29939;DHT22;16799;50.844;5.304;2024-02-26T02:32:49;6.40;99.90
29939;DHT22;16799;50.844;5.304;2024-02-26T02:35:15;6.30;99.90
29939;DHT22;16799;50.844;5.304;2024-02-26T02:37:41;6.30;99.90
29939;DHT22;16799;50.844;5.304;2024-02-26T02:40:07;6.30;99.90
29939;DHT22;16799;50.844;5.304;2024-02-26T02:42:33;6.30;99.90
29939;DHT22;16799;50.844;5.304;2024-02-26T02:44:58;6.30;99.90
29939;DHT22;16799;50.844;5.304;2024-02-26T02:47:24;6.30;99.90
29939;DHT22;16799;50.844;5.304;2024-02-26T02:49:50;6.30;99.90
29939;DHT22;16799;50.844;5.304;2024-02-26T02:52:15;6.30;99.90
29939;DHT22;16799;50.844;5.304;2024-02-26T02:54:41;6.30;99.90
29939;DHT22;16799;50.844;5.304;2024-02-26T02:57:10;6.30;99.90
29939;DHT22;16799;50.844;5.304;2024-02-26T02:59:37;6.30;99.90
29939;DHT22;16799;50.844;5.304;2024-02-26T03:02:02;6.30;99.90
29939;DHT22;16799;50.844;5.304;2024-02-26T03:04:28;6.20;99.90
29939;DHT22;16799;50.844;5.304;2024-02-26T03:06:54;6.30;99.90
29939;DHT22;16799;50.844;5.304;2024-02-26T03:09:20;6.30;99.90
29939;DHT22;16799;50.844;5.304;2024-02-26T03:11:46;6.30;99.90
29939;DHT22;16799;50.844;5.304;2024-02-26T03:14:12;6.40;99.90
29939;DHT22;16799;50.844;5.304;2024-02-26T03:16:37;6.40;99.90
29939;DHT22;16799;50.844;5.304;2024-02-26T03:19:03;6.40;99.90
29939;DHT22;16799;50.844;5.304;2024-02-26T03:21:29;6.30;99.90
29939;DHT22;16799;50.844;5.304;2024-02-26T03:23:55;6.30;99.90
29939;DHT22;16799;50.844;5.304;2024-02-26T03:26:20;6.30;99.90
29939;DHT22;16799;50.844;5.304;2024-02-26T03:28:47;6.30;99.90
29939;DHT22;16799;50.844;5.304;2024-02-26T03:31:12;6.20;99.90
29939;DHT22;16799;50.844;5.304;2024-02-26T03:33:38;6.20;99.90
29939;DHT22;16799;50.844;5.304;2024-02-26T03:36:04;6.30;99.90
29939;DHT22;16799;50.844;5.304;2024-02-26T03:38:30;6.30;99.90
29939;DHT22;16799;50.844;5.304;2024-02-26T03:40:56;6.30;99.90
29939;DHT22;16799;50.844;5.304;2024-02-26T03:43:22;6.30;99.90
29939;DHT22;16799;50.844;5.304;2024-02-26T03:45:47;6.30;99.90
29939;DHT22;16799;50.844;5.304;2024-02-26T03:48:13;6.30;99.90
29939;DHT22;16799;50.844;5.304;2024-02-26T03:50:39;6.30;99.90
29939;DHT22;16799;50.844;5.304;2024-02-26T03:53:04;6.40;99.90
29939;DHT22;16799;50.844;5.304;2024-02-26T03:55:30;6.40;99.90
29939;DHT22;16799;50.844;5.304;2024-02-26T03:57:56;6.40;99.90
29939;DHT22;16799;50.844;5.304;2024-02-26T04:00:22;6.40;99.90
29939;DHT22;16799;50.844;5.304;2024-02-26T04:02:48;6.40;99.90
29939;DHT22;16799;50.844;5.304;2024-02-26T04:05:14;6.40;99.90
29939;DHT22;16799;50.844;5.304;2024-02-26T04:07:40;6.40;99.90
29939;DHT22;16799;50.844;5.304;2024-02-26T04:10:10;6.30;99.90
29939;DHT22;16799;50.844;5.304;2024-02-26T04:12:37;6.30;99.90
29939;DHT22;16799;50.844;5.304;2024-02-26T04:15:03;6.30;99.90
29939;DHT22;16799;50.844;5.304;2024-02-26T04:17:30;6.40;99.90
29939;DHT22;16799;50.844;5.304;2024-02-26T04:19:55;6.30;99.90
29939;DHT22;16799;50.844;5.304;2024-02-26T04:22:21;6.30;99.90
29939;DHT22;16799;50.844;5.304;2024-02-26T04:24:47;6.30;99.90
29939;DHT22;16799;50.844;5.304;2024-02-26T04:27:12;6.30;99.90
29939;DHT22;16799;50.844;5.304;2024-02-26T04:29:38;6.40;99.90
29939;DHT22;16799;50.844;5.304;2024-02-26T04:32:04;6.40;99.90
29939;DHT22;16799;50.844;5.304;2024-02-26T04:34:30;6.30;99.90
29939;DHT22;16799;50.844;5.304;2024-02-26T04:36:55;6.30;99.90
29939;DHT22;16799;50.844;5.304;2024-02-26T04:39:21;6.30;99.90
29939;DHT22;16799;50.844;5.304;2024-02-26T04:41:46;6.30;99.90
29939;DHT22;16799;50.844;5.304;2024-02-26T04:44:12;6.30;99.90
29939;DHT22;16799;50.844;5.304;2024-02-26T04:46:38;6.30;99.90
29939;DHT22;16799;50.844;5.304;2024-02-26T04:49:03;6.20;99.90
29939;DHT22;16799;50.844;5.304;2024-02-26T04:51:29;6.30;99.90
29939;DHT22;16799;50.844;5.304;2024-02-26T04:53:55;6.20;99.90
29939;DHT22;16799;50.844;5.304;2024-02-26T04:56:24;6.30;99.90
29939;DHT22;16799;50.844;5.304;2024-02-26T04:58:50;6.20;99.90
29939;DHT22;16799;50.844;5.304;2024-02-26T05:01:16;6.30;99.90
29939;DHT22;16799;50.844;5.304;2024-02-26T05:03:42;6.30;99.90
29939;DHT22;16799;50.844;5.304;2024-02-26T05:06:08;6.30;99.90
29939;DHT22;16799;50.844;5.304;2024-02-26T05:08:34;6.30;99.90
29939;DHT22;16799;50.844;5.304;2024-02-26T05:11:02;6.30;99.90
29939;DHT22;16799;50.844;5.304;2024-02-26T05:13:31;6.30;99.90
29939;DHT22;16799;50.844;5.304;2024-02-26T05:15:57;6.30;99.90
29939;DHT22;16799;50.844;5.304;2024-02-26T05:18:23;6.40;99.90
29939;DHT22;16799;50.844;5.304;2024-02-26T05:20:48;6.40;99.90
29939;DHT22;16799;50.844;5.304;2024-02-26T05:23:14;6.30;99.90
29939;DHT22;16799;50.844;5.304;2024-02-26T05:25:40;6.40;99.90
29939;DHT22;16799;50.844;5.304;2024-02-26T05:28:06;6.40;99.90
29939;DHT22;16799;50.844;5.304;2024-02-26T05:30:32;6.40;99.90
29939;DHT22;16799;50.844;5.304;2024-02-26T05:32:58;6.30;99.90
29939;DHT22;16799;50.844;5.304;2024-02-26T05:35:24;6.30;99.90
29939;DHT22;16799;50.844;5.304;2024-02-26T05:37:51;6.30;99.90
29939;DHT22;16799;50.844;5.304;2024-02-26T05:40:16;6.30;99.90
29939;DHT22;16799;50.844;5.304;2024-02-26T05:42:42;6.30;99.90
29939;DHT22;16799;50.844;5.304;2024-02-26T05:45:10;6.30;99.90
29939;DHT22;16799;50.844;5.304;2024-02-26T05:47:36;6.30;99.90
29939;DHT22;16799;50.844;5.304;2024-02-26T05:50:02;6.20;99.90
29939;DHT22;16799;50.844;5.304;2024-02-26T05:52:27;6.20;99.90
29939;DHT22;16799;50.844;5.304;2024-02-26T05:54:55;6.20;99.90
29939;DHT22;16799;50.844;5.304;2024-02-26T05:57:20;6.20;99.90
29939;DHT22;16799;50.844;5.304;2024-02-26T05:59:46;6.30;99.90
29939;DHT22;16799;50.844;5.304;2024-02-26T06:02:11;6.20;99.90
29939;DHT22;16799;50.844;5.304;2024-02-26T06:04:37;6.30;99.90
29939;DHT22;16799;50.844;5.304;2024-02-26T06:07:03;6.30;99.90
29939;DHT22;16799;50.844;5.304;2024-02-26T06:09:28;6.20;99.90
29939;DHT22;16799;50.844;5.304;2024-02-26T06:11:54;6.30;99.90
29939;DHT22;16799;50.844;5.304;2024-02-26T06:14:20;6.20;99.90
29939;DHT22;16799;50.844;5.304;2024-02-26T06:16:46;6.20;99.90
29939;DHT22;16799;50.844;5.304;2024-02-26T06:19:12;6.10;99.90
29939;DHT22;16799;50.844;5.304;2024-02-26T06:21:37;6.10;99.90
29939;DHT22;16799;50.844;5.304;2024-02-26T06:24:03;6.10;99.90
29939;DHT22;16799;50.844;5.304;2024-02-26T06:26:29;6.10;99.90
29939;DHT22;16799;50.844;5.304;2024-02-26T06:28:55;6.10;99.90
29939;DHT22;16799;50.844;5.304;2024-02-26T06:31:24;6.00;99.90
29939;DHT22;16799;50.844;5.304;2024-02-26T06:33:50;6.10;99.90
29939;DHT22;16799;50.844;5.304;2024-02-26T06:36:16;6.10;99.90
29939;DHT22;16799;50.844;5.304;2024-02-26T06:38:41;6.10;99.90
29939;DHT22;16799;50.844;5.304;2024-02-26T06:41:07;6.10;99.90
29939;DHT22;16799;50.844;5.304;2024-02-26T06:43:33;6.10;99.90
29939;DHT22;16799;50.844;5.304;2024-02-26T06:45:58;6.10;99.90
29939;DHT22;16799;50.844;5.304;2024-02-26T06:48:24;6.10;99.90
29939;DHT22;16799;50.844;5.304;2024-02-26T06:50:50;6.10;99.90
29939;DHT22;16799;50.844;5.304;2024-02-26T06:53:16;6.00;99.90
29939;DHT22;16799;50.844;5.304;2024-02-26T06:55:42;6.00;99.90
29939;DHT22;16799;50.844;5.304;2024-02-26T06:58:08;6.00;99.90
29939;DHT22;16799;50.844;5.304;2024-02-26T07:00:34;5.90;99.90
29939;DHT22;16799;50.844;5.304;2024-02-26T07:03:00;6.00;99.90
29939;DHT22;16799;50.844;5.304;2024-02-26T07:05:26;6.00;99.90
29939;DHT22;16799;50.844;5.304;2024-02-26T07:07:52;5.90;99.90
29939;DHT22;16799;50.844;5.304;2024-02-26T07:10:18;5.90;99.90
29939;DHT22;16799;50.844;5.304;2024-02-26T07:12:44;5.90;99.90
29939;DHT22;16799;50.844;5.304;2024-02-26T07:15:10;5.90;99.90
29939;DHT22;16799;50.844;5.304;2024-02-26T07:17:36;5.90;99.90
29939;DHT22;16799;50.844;5.304;2024-02-26T07:20:02;6.00;99.90
29939;DHT22;16799;50.844;5.304;2024-02-26T07:22:30;6.00;99.90
29939;DHT22;16799;50.844;5.304;2024-02-26T07:24:56;6.00;99.90
29939;DHT22;16799;50.844;5.304;2024-02-26T07:27:21;6.00;99.90
29939;DHT22;16799;50.844;5.304;2024-02-26T07:29:47;6.00;99.90
29939;DHT22;16799;50.844;5.304;2024-02-26T07:32:13;5.90;99.90
29939;DHT22;16799;50.844;5.304;2024-02-26T07:34:39;6.00;99.90
29939;DHT22;16799;50.844;5.304;2024-02-26T07:37:07;6.10;99.90
29939;DHT22;16799;50.844;5.304;2024-02-26T07:39:33;6.00;99.90
29939;DHT22;16799;50.844;5.304;2024-02-26T07:41:59;6.00;99.90
29939;DHT22;16799;50.844;5.304;2024-02-26T07:44:25;6.00;99.90
29939;DHT22;16799;50.844;5.304;2024-02-26T07:46:50;6.00;99.90
29939;DHT22;16799;50.844;5.304;2024-02-26T07:49:16;6.00;99.90
29939;DHT22;16799;50.844;5.304;2024-02-26T07:51:42;5.90;99.90
29939;DHT22;16799;50.844;5.304;2024-02-26T07:54:07;5.90;99.90
29939;DHT22;16799;50.844;5.304;2024-02-26T07:56:33;6.00;99.90
29939;DHT22;16799;50.844;5.304;2024-02-26T07:58:59;6.00;99.90
29939;DHT22;16799;50.844;5.304;2024-02-26T08:01:24;6.00;99.90
29939;DHT22;16799;50.844;5.304;2024-02-26T08:03:54;5.90;99.90
29939;DHT22;16799;50.844;5.304;2024-02-26T08:06:21;6.00;99.90
29939;DHT22;16799;50.844;5.304;2024-02-26T08:08:47;6.00;99.90
29939;DHT22;16799;50.844;5.304;2024-02-26T08:11:14;5.90;99.90
29939;DHT22;16799;50.844;5.304;2024-02-26T08:13:41;6.00;99.90
29939;DHT22;16799;50.844;5.304;2024-02-26T08:16:07;6.00;99.90
29939;DHT22;16799;50.844;5.304;2024-02-26T08:18:32;6.00;99.90
29939;DHT22;16799;50.844;5.304;2024-02-26T08:20:58;6.00;99.90
29939;DHT22;16799;50.844;5.304;2024-02-26T08:23:24;6.00;99.90
29939;DHT22;16799;50.844;5.304;2024-02-26T08:25:50;5.90;99.90
29939;DHT22;16799;50.844;5.304;2024-02-26T08:28:16;6.00;99.90
29939;DHT22;16799;50.844;5.304;2024-02-26T08:30:43;6.00;99.90
29939;DHT22;16799;50.844;5.304;2024-02-26T08:33:09;6.00;99.90
29939;DHT22;16799;50.844;5.304;2024-02-26T08:35:36;6.00;99.90
29939;DHT22;16799;50.844;5.304;2024-02-26T08:38:01;6.10;99.90
29939;DHT22;16799;50.844;5.304;2024-02-26T08:40:28;6.10;99.90
29939;DHT22;16799;50.844;5.304;2024-02-26T08:42:54;6.10;99.90
29939;DHT22;16799;50.844;5.304;2024-02-26T08:45:20;6.00;99.90
29939;DHT22;16799;50.844;5.304;2024-02-26T08:47:46;6.10;99.90
29939;DHT22;16799;50.844;5.304;2024-02-26T08:50:12;6.10;99.90
29939;DHT22;16799;50.844;5.304;2024-02-26T08:52:38;6.10;99.90
29939;DHT22;16799;50.844;5.304;2024-02-26T08:55:04;6.10;99.90
29939;DHT22;16799;50.844;5.304;2024-02-26T08:57:31;6.20;99.90
29939;DHT22;16799;50.844;5.304;2024-02-26T08:59:59;6.20;99.90
29939;DHT22;16799;50.844;5.304;2024-02-26T09:02:26;6.20;99.90
29939;DHT22;16799;50.844;5.304;2024-02-26T09:04:51;6.20;99.90
29939;DHT22;16799;50.844;5.304;2024-02-26T09:07:19;6.10;99.90
29939;DHT22;16799;50.844;5.304;2024-02-26T09:09:45;6.10;99.90
29939;DHT22;16799;50.844;5.304;2024-02-26T09:12:11;6.10;99.90
29939;DHT22;16799;50.844;5.304;2024-02-26T09:14:36;6.10;99.90
29939;DHT22;16799;50.844;5.304;2024-02-26T09:17:02;6.10;99.90
29939;DHT22;16799;50.844;5.304;2024-02-26T09:19:28;6.20;99.90
29939;DHT22;16799;50.844;5.304;2024-02-26T09:21:53;6.20;99.90
29939;DHT22;16799;50.844;5.304;2024-02-26T09:24:23;6.30;99.90
29939;DHT22;16799;50.844;5.304;2024-02-26T09:26:49;6.30;99.90
29939;DHT22;16799;50.844;5.304;2024-02-26T09:29:14;6.30;99.90
29939;DHT22;16799;50.844;5.304;2024-02-26T09:31:40;6.50;99.90
29939;DHT22;16799;50.844;5.304;2024-02-26T09:34:07;6.50;99.90
29939;DHT22;16799;50.844;5.304;2024-02-26T09:36:33;6.50;99.90
29939;DHT22;16799;50.844;5.304;2024-02-26T09:38:59;6.40;99.90
29939;DHT22;16799;50.844;5.304;2024-02-26T09:41:28;6.40;99.90
29939;DHT22;16799;50.844;5.304;2024-02-26T09:43:56;6.40;99.90
29939;DHT22;16799;50.844;5.304;2024-02-26T09:46:26;6.40;99.90
29939;DHT22;16799;50.844;5.304;2024-02-26T09:48:52;6.30;99.90
29939;DHT22;16799;50.844;5.304;2024-02-26T09:51:18;6.40;99.90
29939;DHT22;16799;50.844;5.304;2024-02-26T09:53:47;6.50;99.90
29939;DHT22;16799;50.844;5.304;2024-02-26T09:56:13;6.50;99.90
29939;DHT22;16799;50.844;5.304;2024-02-26T09:58:40;6.50;99.90
29939;DHT22;16799;50.844;5.304;2024-02-26T10:01:13;6.40;99.90
29939;DHT22;16799;50.844;5.304;2024-02-26T10:03:42;6.50;99.90
29939;DHT22;16799;50.844;5.304;2024-02-26T10:06:10;6.60;99.90
29939;DHT22;16799;50.844;5.304;2024-02-26T10:08:36;6.60;99.90
29939;DHT22;16799;50.844;5.304;2024-02-26T10:11:04;6.60;99.90
29939;DHT22;16799;50.844;5.304;2024-02-26T10:13:30;6.60;99.90
29939;DHT22;16799;50.844;5.304;2024-02-26T10:15:56;6.60;99.90
29939;DHT22;16799;50.844;5.304;2024-02-26T10:18:25;6.60;99.90
29939;DHT22;16799;50.844;5.304;2024-02-26T10:21:02;6.70;99.90
29939;DHT22;16799;50.844;5.304;2024-02-26T10:23:27;6.70;99.90
29939;DHT22;16799;50.844;5.304;2024-02-26T10:25:56;6.70;99.90
29939;DHT22;16799;50.844;5.304;2024-02-26T10:28:23;6.70;99.90
29939;DHT22;16799;50.844;5.304;2024-02-26T10:30:48;6.70;99.90
29939;DHT22;16799;50.844;5.304;2024-02-26T10:33:14;6.60;99.90
29939;DHT22;16799;50.844;5.304;2024-02-26T10:35:45;6.50;99.90
29939;DHT22;16799;50.844;5.304;2024-02-26T10:38:12;6.70;99.90
29939;DHT22;16799;50.844;5.304;2024-02-26T10:40:37;6.70;99.90
29939;DHT22;16799;50.844;5.304;2024-02-26T10:43:03;6.70;99.90
29939;DHT22;16799;50.844;5.304;2024-02-26T10:45:29;6.70;99.90
29939;DHT22;16799;50.844;5.304;2024-02-26T10:47:54;6.70;99.90
29939;DHT22;16799;50.844;5.304;2024-02-26T10:50:20;6.70;99.90
29939;DHT22;16799;50.844;5.304;2024-02-26T10:52:46;6.80;99.90
29939;DHT22;16799;50.844;5.304;2024-02-26T10:55:18;6.60;99.90
29939;DHT22;16799;50.844;5.304;2024-02-26T10:57:45;6.60;99.90
29939;DHT22;16799;50.844;5.304;2024-02-26T11:00:15;6.70;99.90
29939;DHT22;16799;50.844;5.304;2024-02-26T11:02:41;6.70;99.90
29939;DHT22;16799;50.844;5.304;2024-02-26T11:05:11;6.50;99.90
29939;DHT22;16799;50.844;5.304;2024-02-26T11:07:37;6.70;99.90
29939;DHT22;16799;50.844;5.304;2024-02-26T11:10:05;6.60;99.90
29939;DHT22;16799;50.844;5.304;2024-02-26T11:12:32;6.60;99.90
29939;DHT22;16799;50.844;5.304;2024-02-26T11:15:01;6.60;99.90
29939;DHT22;16799;50.844;5.304;2024-02-26T11:17:28;6.70;99.90
29939;DHT22;16799;50.844;5.304;2024-02-26T11:19:58;6.70;99.90
29939;DHT22;16799;50.844;5.304;2024-02-26T11:22:25;6.90;99.90
29939;DHT22;16799;50.844;5.304;2024-02-26T11:24:55;6.90;99.90
29939;DHT22;16799;50.844;5.304;2024-02-26T11:27:42;6.90;99.90
29939;DHT22;16799;50.844;5.304;2024-02-26T11:30:10;7.00;99.90
29939;DHT22;16799;50.844;5.304;2024-02-26T11:32:36;7.30;99.90
29939;DHT22;16799;50.844;5.304;2024-02-26T11:35:04;7.30;99.90
29939;DHT22;16799;50.844;5.304;2024-02-26T11:37:31;7.30;99.90
29939;DHT22;16799;50.844;5.304;2024-02-26T11:39:59;7.20;99.90
29939;DHT22;16799;50.844;5.304;2024-02-26T11:42:26;7.40;99.90
29939;DHT22;16799;50.844;5.304;2024-02-26T11:44:52;7.50;99.90
29939;DHT22;16799;50.844;5.304;2024-02-26T11:47:18;7.50;99.90
29939;DHT22;16799;50.844;5.304;2024-02-26T11:49:44;7.70;99.90
29939;DHT22;16799;50.844;5.304;2024-02-26T11:52:10;7.90;99.90
29939;DHT22;16799;50.844;5.304;2024-02-26T11:57:39;7.70;99.90
29939;DHT22;16799;50.844;5.304;2024-02-26T12:00:15;7.90;99.90
29939;DHT22;16799;50.844;5.304;2024-02-26T12:02:50;7.70;99.90
29939;DHT22;16799;50.844;5.304;2024-02-26T12:05:32;7.80;99.90
29939;DHT22;16799;50.844;5.304;2024-02-26T12:08:06;7.80;99.90
29939;DHT22;16799;50.844;5.304;2024-02-26T12:10:35;7.80;99.90
29939;DHT22;16799;50.844;5.304;2024-02-26T12:13:08;7.60;99.90
29939;DHT22;16799;50.844;5.304;2024-02-26T12:15:38;7.60;99.90
29939;DHT22;16799;50.844;5.304;2024-02-26T12:18:06;7.90;99.90
29939;DHT22;16799;50.844;5.304;2024-02-26T12:20:33;8.00;99.90
29939;DHT22;16799;50.844;5.304;2024-02-26T12:22:59;7.90;99.90
29939;DHT22;16799;50.844;5.304;2024-02-26T12:25:27;8.10;99.90
29939;DHT22;16799;50.844;5.304;2024-02-26T12:27:54;8.30;99.90
29939;DHT22;16799;50.844;5.304;2024-02-26T12:30:20;8.30;99.90
29939;DHT22;16799;50.844;5.304;2024-02-26T12:32:50;8.60;99.90
29939;DHT22;16799;50.844;5.304;2024-02-26T12:35:16;8.30;99.90
29939;DHT22;16799;50.844;5.304;2024-02-26T12:37:45;8.30;99.90
29939;DHT22;16799;50.844;5.304;2024-02-26T12:40:12;8.10;99.90
29939;DHT22;16799;50.844;5.304;2024-02-26T12:42:38;8.00;99.90
29939;DHT22;16799;50.844;5.304;2024-02-26T12:45:06;7.90;99.90
29939;DHT22;16799;50.844;5.304;2024-02-26T12:47:38;8.00;99.90
29939;DHT22;16799;50.844;5.304;2024-02-26T12:50:05;8.00;99.90
29939;DHT22;16799;50.844;5.304;2024-02-26T12:52:33;8.20;99.90
29939;DHT22;16799;50.844;5.304;2024-02-26T12:55:02;8.30;99.90
29939;DHT22;16799;50.844;5.304;2024-02-26T12:57:35;8.40;99.90
29939;DHT22;16799;50.844;5.304;2024-02-26T13:00:02;8.40;99.90
29939;DHT22;16799;50.844;5.304;2024-02-26T13:02:30;8.40;99.90
29939;DHT22;16799;50.844;5.304;2024-02-26T13:04:57;8.20;99.90
29939;DHT22;16799;50.844;5.304;2024-02-26T13:07:23;8.10;99.90
29939;DHT22;16799;50.844;5.304;2024-02-26T13:09:49;8.10;99.90
29939;DHT22;16799;50.844;5.304;2024-02-26T13:12:17;7.80;99.90
29939;DHT22;16799;50.844;5.304;2024-02-26T13:14:43;7.70;99.90
29939;DHT22;16799;50.844;5.304;2024-02-26T13:17:09;7.70;99.90
29939;DHT22;16799;50.844;5.304;2024-02-26T13:19:35;7.50;99.90
29939;DHT22;16799;50.844;5.304;2024-02-26T13:22:07;7.30;99.90
29939;DHT22;16799;50.844;5.304;2024-02-26T13:24:36;7.40;99.90
29939;DHT22;16799;50.844;5.304;2024-02-26T13:27:02;7.50;99.90
29939;DHT22;16799;50.844;5.304;2024-02-26T13:29:31;7.40;99.90
29939;DHT22;16799;50.844;5.304;2024-02-26T13:31:58;7.40;99.90
29939;DHT22;16799;50.844;5.304;2024-02-26T13:34:28;7.30;99.90
29939;DHT22;16799;50.844;5.304;2024-02-26T13:36:54;7.30;99.90
29939;DHT22;16799;50.844;5.304;2024-02-26T13:39:27;7.10;99.90
29939;DHT22;16799;50.844;5.304;2024-02-26T13:41:53;7.10;99.90
29939;DHT22;16799;50.844;5.304;2024-02-26T13:44:20;7.20;99.90
29939;DHT22;16799;50.844;5.304;2024-02-26T13:46:46;7.10;99.90
29939;DHT22;16799;50.844;5.304;2024-02-26T13:49:12;7.10;99.90
29939;DHT22;16799;50.844;5.304;2024-02-26T13:51:39;7.20;99.90
29939;DHT22;16799;50.844;5.304;2024-02-26T13:54:05;7.10;99.90
29939;DHT22;16799;50.844;5.304;2024-02-26T13:56:31;6.90;99.90
29939;DHT22;16799;50.844;5.304;2024-02-26T13:58:57;6.90;99.90
29939;DHT22;16799;50.844;5.304;2024-02-26T14:01:24;6.80;99.90
29939;DHT22;16799;50.844;5.304;2024-02-26T14:03:49;7.00;99.90
29939;DHT22;16799;50.844;5.304;2024-02-26T14:06:15;7.00;99.90
29939;DHT22;16799;50.844;5.304;2024-02-26T14:08:41;7.00;99.90
29939;DHT22;16799;50.844;5.304;2024-02-26T14:11:06;6.90;99.90
29939;DHT22;16799;50.844;5.304;2024-02-26T14:13:32;6.90;99.90
29939;DHT22;16799;50.844;5.304;2024-02-26T14:15:58;6.90;99.90
29939;DHT22;16799;50.844;5.304;2024-02-26T14:18:24;7.00;99.90
29939;DHT22;16799;50.844;5.304;2024-02-26T14:20:49;6.90;99.90
29939;DHT22;16799;50.844;5.304;2024-02-26T14:23:15;6.90;99.90
29939;DHT22;16799;50.844;5.304;2024-02-26T14:25:41;6.90;99.90
29939;DHT22;16799;50.844;5.304;2024-02-26T14:28:06;6.70;99.90
29939;DHT22;16799;50.844;5.304;2024-02-26T14:30:32;6.80;99.90
29939;DHT22;16799;50.844;5.304;2024-02-26T14:32:58;6.70;99.90
29939;DHT22;16799;50.844;5.304;2024-02-26T14:35:24;6.80;99.90
29939;DHT22;16799;50.844;5.304;2024-02-26T14:37:50;6.80;99.90
29939;DHT22;16799;50.844;5.304;2024-02-26T14:40:17;6.80;99.90
29939;DHT22;16799;50.844;5.304;2024-02-26T14:42:44;6.70;99.90
29939;DHT22;16799;50.844;5.304;2024-02-26T14:45:10;6.70;99.90
29939;DHT22;16799;50.844;5.304;2024-02-26T14:47:37;6.70;99.90
29939;DHT22;16799;50.844;5.304;2024-02-26T14:50:03;6.70;99.90
29939;DHT22;16799;50.844;5.304;2024-02-26T14:52:29;6.70;99.90
29939;DHT22;16799;50.844;5.304;2024-02-26T14:54:55;6.70;99.90
29939;DHT22;16799;50.844;5.304;2024-02-26T14:57:20;6.80;99.90
29939;DHT22;16799;50.844;5.304;2024-02-26T14:59:46;6.80;99.90
29939;DHT22;16799;50.844;5.304;2024-02-26T15:02:13;6.70;99.90
29939;DHT22;16799;50.844;5.304;2024-02-26T15:04:39;6.80;99.90
29939;DHT22;16799;50.844;5.304;2024-02-26T15:07:04;6.80;99.90
29939;DHT22;16799;50.844;5.304;2024-02-26T15:09:30;6.90;99.90
29939;DHT22;16799;50.844;5.304;2024-02-26T15:11:56;6.80;99.90
29939;DHT22;16799;50.844;5.304;2024-02-26T15:14:23;6.80;99.90
29939;DHT22;16799;50.844;5.304;2024-02-26T15:16:49;6.70;99.90
29939;DHT22;16799;50.844;5.304;2024-02-26T15:19:15;6.70;99.90
29939;DHT22;16799;50.844;5.304;2024-02-26T15:21:44;6.60;99.90
29939;DHT22;16799;50.844;5.304;2024-02-26T15:24:10;6.60;99.90
29939;DHT22;16799;50.844;5.304;2024-02-26T15:26:41;6.60;99.90
29939;DHT22;16799;50.844;5.304;2024-02-26T15:29:07;6.70;99.90
29939;DHT22;16799;50.844;5.304;2024-02-26T15:31:36;6.80;99.90
29939;DHT22;16799;50.844;5.304;2024-02-26T15:34:03;6.90;99.90
29939;DHT22;16799;50.844;5.304;2024-02-26T15:36:29;6.80;99.90
29939;DHT22;16799;50.844;5.304;2024-02-26T15:38:55;6.90;99.90
29939;DHT22;16799;50.844;5.304;2024-02-26T15:41:22;6.80;99.90
29939;DHT22;16799;50.844;5.304;2024-02-26T15:43:48;6.80;99.90